Time;durP1;ratioP1;P1;durP2;ratioP2;P2;SDS_P1;SDS_P2;PMS_P1;PMS_P2;Temp;Humidity;BMP_temperature;BMP_pressure;BME280_temperature;BME280_humidity;BME280_pressure;Samples;Min_cycle;Max_cycle;Signal;HPM_P1;HPM_P2
2021/11/16 00:00:45;;;;;;;111.32;24.88;;;8.50;82.20;;;7.82;68.24;95591.03;4943372;28;20273;-88
2021/11/16 00:03:13;;;;;;;107.20;25.55;;;8.50;82.20;;;7.85;68.51;95593.34;4943795;28;20186;-89
2021/11/16 00:05:40;;;;;;;129.10;27.27;;;8.50;82.20;;;7.80;68.59;95578.16;4943399;28;20222;-89
2021/11/16 00:08:08;;;;;;;114.13;23.83;;;8.50;82.20;;;7.86;68.22;95579.31;4943519;28;20198;-88
2021/11/16 00:10:38;;;;;;;98.95;24.08;;;8.50;82.20;;;7.85;68.72;95582.91;4959466;28;20203;-87
2021/11/16 00:13:11;;;;;;;159.93;24.17;;;8.50;82.20;;;7.89;68.13;95588.63;4943098;28;20206;-89
2021/11/16 00:15:44;;;;;;;150.23;23.80;;;8.50;82.20;;;7.86;68.24;95571.50;4943925;28;20257;-89
2021/11/16 00:18:14;;;;;;;150.48;24.95;;;8.50;82.30;;;7.89;68.29;95579.00;4958868;28;20198;-90
2021/11/16 00:20:43;;;;;;;138.75;24.73;;;8.50;82.20;;;7.89;68.30;95580.81;4943117;28;20226;-89
2021/11/16 00:23:21;;;;;;;134.57;24.33;;;8.50;82.20;;;7.88;68.30;95577.34;4927674;28;20257;-89
2021/11/16 00:25:55;;;;;;;155.15;25.98;;;8.50;82.40;;;7.89;68.53;95584.22;4943728;28;20190;-89
2021/11/16 00:28:24;;;;;;;164.90;25.10;;;8.50;82.30;;;7.90;68.68;95578.03;4926509;28;20273;-89
2021/11/16 00:30:53;;;;;;;138.75;26.27;;;8.50;82.20;;;7.89;68.55;95581.59;4942925;28;20657;-88
2021/11/16 00:33:22;;;;;;;134.95;24.98;;;8.60;82.40;;;7.92;68.46;95583.91;4942818;28;20357;-88
2021/11/16 00:35:51;;;;;;;126.53;23.88;;;8.60;82.40;;;7.94;68.36;95581.94;4942063;28;20211;-88
2021/11/16 00:38:20;;;;;;;128.98;25.17;;;8.60;82.40;;;7.90;68.61;95579.81;4942289;28;20202;-89
2021/11/16 00:40:48;;;;;;;155.07;27.50;;;8.60;82.50;;;7.96;68.60;95582.59;4942788;28;20269;-88
2021/11/16 00:43:16;;;;;;;166.30;28.58;;;8.60;82.50;;;7.97;68.57;95580.81;4942506;28;20680;-89
2021/11/16 00:45:46;;;;;;;137.65;26.65;;;8.60;82.50;;;7.98;68.53;95585.88;4941229;28;20314;-88
2021/11/16 00:48:23;;;;;;;115.47;26.13;;;8.70;82.60;;;8.00;68.66;95585.72;4937423;28;20203;-88
2021/11/16 00:50:55;;;;;;;116.75;28.15;;;8.60;82.50;;;8.01;68.70;95576.91;4941440;28;20673;-89
2021/11/16 00:53:30;;;;;;;119.82;26.58;;;8.70;82.60;;;8.03;68.45;95569.72;4927497;28;20222;-89
2021/11/16 00:56:00;;;;;;;97.72;27.38;;;8.60;82.60;;;7.97;68.81;95559.91;4942959;28;20194;-88
2021/11/16 00:58:28;;;;;;;164.02;30.63;;;8.70;82.60;;;8.04;69.00;95578.38;4942187;28;20221;-89
2021/11/16 01:00:56;;;;;;;118.63;27.38;;;8.70;82.60;;;8.06;68.54;95566.00;4942172;28;20226;-89
2021/11/16 01:03:24;;;;;;;127.60;27.42;;;8.70;82.60;;;8.08;68.55;95569.25;4942526;28;20266;-89
2021/11/16 01:05:54;;;;;;;135.85;26.95;;;8.70;82.70;;;8.10;68.01;95564.69;4925939;28;20203;-88
2021/11/16 01:08:22;;;;;;;135.10;30.05;;;8.70;82.70;;;8.11;68.92;95566.31;4942007;28;20215;-89
2021/11/16 01:10:53;;;;;;;111.05;30.15;;;8.80;82.70;;;8.06;68.84;95563.38;4942270;28;20265;-89
2021/11/16 01:13:22;;;;;;;96.97;30.92;;;8.80;82.70;;;8.14;68.65;95564.22;4942702;28;20249;-88
2021/11/16 01:15:51;;;;;;;97.32;29.77;;;8.80;82.80;;;8.15;68.75;95560.63;4941684;28;20195;-89
2021/11/16 01:18:22;;;;;;;118.13;32.55;;;8.80;82.80;;;8.15;68.84;95557.19;4942291;28;20206;-90
2021/11/16 01:20:51;;;;;;;106.88;32.92;;;8.80;82.80;;;8.14;68.58;95560.75;4942280;28;20701;-89
2021/11/16 01:23:20;;;;;;;80.95;33.00;;;8.80;82.70;;;8.15;68.80;95552.78;4942480;28;20464;-89
2021/11/16 01:25:48;;;;;;;68.88;34.10;;;8.80;82.70;;;8.14;69.08;95547.69;4925369;28;20199;-89
2021/11/16 01:28:23;;;;;;;60.25;32.22;;;8.80;82.70;;;8.17;68.91;95547.38;4957138;28;20297;-89
2021/11/16 01:30:53;;;;;;;60.30;33.30;;;8.80;82.70;;;8.20;68.66;95548.84;4939673;29;20226;-88
2021/11/16 01:33:28;;;;;;;61.95;34.15;;;8.80;82.70;;;8.18;68.65;95547.22;4938883;28;20722;-89
2021/11/16 01:35:56;;;;;;;63.08;33.53;;;8.80;82.60;;;8.20;68.56;95549.66;4965067;28;20206;-89
2021/11/16 01:38:24;;;;;;;71.50;33.08;;;8.90;82.70;;;8.18;68.68;95549.03;4938258;28;20330;-88
2021/11/16 01:40:52;;;;;;;73.22;36.33;;;8.80;82.60;;;8.17;68.95;95548.19;4938640;28;20215;-89
2021/11/16 01:43:20;;;;;;;78.07;36.75;;;8.80;82.60;;;8.14;69.00;95551.16;4941640;28;20222;-88
2021/11/16 01:46:12;;;;;;;74.70;36.30;;;8.90;82.70;;;8.16;68.88;95545.75;4942921;28;20191;-89
2021/11/16 01:48:43;;;;;;;56.20;32.55;;;8.80;82.80;;;8.15;68.87;95544.13;4941878;28;20237;-88
2021/11/16 01:51:10;;;;;;;63.95;34.75;;;8.90;82.70;;;8.13;69.12;95541.66;4941804;28;20203;-88
2021/11/16 01:53:38;;;;;;;65.68;33.20;;;8.80;82.70;;;8.16;68.79;95550.97;4941094;28;20223;-88
2021/11/16 01:56:06;;;;;;;61.45;34.00;;;8.90;82.70;;;8.17;68.85;95550.00;4940921;28;20294;-89
2021/11/16 01:58:33;;;;;;;72.40;36.08;;;8.90;82.70;;;8.10;68.78;95543.78;4941454;28;20275;-88
2021/11/16 02:01:04;;;;;;;67.57;35.65;;;8.90;82.60;;;8.14;68.86;95548.53;4957326;28;20715;-89
2021/11/16 02:03:32;;;;;;;58.60;32.35;;;8.90;82.50;;;8.13;68.96;95540.84;4941760;28;20218;-90
2021/11/16 02:06:17;;;;;;;66.28;34.38;;;8.80;82.50;;;8.10;68.58;95549.81;4941431;28;20439;-89
2021/11/16 02:08:45;;;;;;;61.63;33.63;;;8.80;82.60;;;8.06;68.93;95543.28;4941804;28;20211;-87
2021/11/16 02:11:12;;;;;;;60.55;32.00;;;8.80;82.50;;;8.02;68.84;95542.78;4957186;28;20254;-89
2021/11/16 02:13:39;;;;;;;69.47;35.30;;;8.80;82.50;;;8.06;68.98;95539.88;4940876;28;20230;-88
2021/11/16 02:16:07;;;;;;;64.55;33.65;;;8.80;82.50;;;8.08;68.67;95537.88;4941036;28;20257;-89
2021/11/16 02:18:36;;;;;;;66.15;34.78;;;8.80;82.50;;;8.05;68.74;95539.03;4957795;28;20222;-89
2021/11/16 02:21:08;;;;;;;69.75;34.92;;;8.80;82.50;;;8.06;68.74;95539.88;4939987;28;20250;-89
2021/11/16 02:23:39;;;;;;;67.07;35.05;;;8.80;83.30;;;8.01;68.82;95538.53;4941737;28;20222;-89
2021/11/16 02:26:09;;;;;;;68.65;32.78;;;8.80;82.50;;;8.05;68.56;95538.22;4940848;28;20206;-89
2021/11/16 02:28:37;;;;;;;87.65;35.30;;;8.80;82.50;;;8.04;68.52;95537.41;4941366;28;20223;-89
2021/11/16 02:31:05;;;;;;;81.82;35.08;;;8.70;82.50;;;8.02;68.69;95534.94;4941086;28;20278;-88
2021/11/16 02:33:32;;;;;;;114.10;34.25;;;8.70;82.50;;;8.00;68.86;95531.66;4940965;28;20227;-88
2021/11/16 02:35:59;;;;;;;107.72;34.17;;;8.70;82.50;;;7.99;68.85;95527.41;4941390;28;20583;-89
2021/11/16 02:38:27;;;;;;;93.28;32.40;;;8.80;82.50;;;7.94;68.88;95521.88;4941220;28;20269;-89
2021/11/16 02:40:54;;;;;;;106.78;31.90;;;8.70;82.50;;;7.99;68.96;95522.19;4941426;28;20305;-89
2021/11/16 02:43:22;;;;;;;91.20;30.88;;;8.70;82.50;;;8.02;68.80;95521.09;4940723;28;20219;-90
2021/11/16 02:45:52;;;;;;;98.78;31.52;;;8.70;82.50;;;7.97;68.61;95511.09;4939727;28;20227;-88
2021/11/16 02:48:19;;;;;;;94.25;33.92;;;8.70;82.60;;;7.98;68.93;95506.69;4941336;28;20203;-88
2021/11/16 02:50:52;;;;;;;130.73;34.17;;;8.70;82.60;;;8.01;68.72;95520.25;4941085;28;20192;-89
2021/11/16 02:53:20;;;;;;;117.15;32.85;;;8.70;82.60;;;8.01;68.90;95516.84;4943673;28;20343;-88
2021/11/16 02:55:48;;;;;;;93.13;31.70;;;8.70;82.60;;;8.00;68.68;95516.00;4944357;28;20289;-89
2021/11/16 02:58:18;;;;;;;64.88;34.58;;;8.70;82.60;;;8.00;68.46;95517.81;4944707;28;20207;-88
2021/11/16 03:01:07;;;;;;;70.07;35.08;;;8.70;82.60;;;7.94;68.59;95510.63;4944502;28;20232;-89
2021/11/16 03:03:38;;;;;;;71.47;33.55;;;8.70;82.60;;;7.97;68.87;95515.50;4925021;29;20223;-88
2021/11/16 03:06:07;;;;;;;63.13;34.15;;;8.70;82.60;;;7.96;68.33;95516.50;4953115;28;20190;-90
2021/11/16 03:08:35;;;;;;;68.07;35.40;;;8.70;82.50;;;7.94;68.99;95514.03;4928877;28;20229;-88
2021/11/16 03:11:07;;;;;;;73.93;37.65;;;8.60;82.50;;;7.92;68.53;95512.56;4944502;28;20203;-89
2021/11/16 03:13:36;;;;;;;68.78;35.15;;;8.60;82.40;;;7.90;68.61;95512.72;4959561;28;20731;-88
2021/11/16 03:16:11;;;;;;;73.65;37.65;;;8.60;82.40;;;7.88;68.54;95509.44;4944410;28;20290;-88
2021/11/16 03:18:40;;;;;;;69.20;36.05;;;8.60;82.30;;;7.88;68.78;95513.88;4928152;28;20214;-88
2021/11/16 03:21:11;;;;;;;76.97;39.20;;;8.70;82.30;;;7.85;68.59;95507.16;4927980;28;20298;-89
2021/11/16 03:23:41;;;;;;;66.88;36.17;;;8.60;82.30;;;7.83;68.47;95498.66;4959665;28;20222;-89
2021/11/16 03:26:09;;;;;;;73.35;36.85;;;8.60;82.30;;;7.84;68.44;95508.16;4938955;29;20227;-88
2021/11/16 03:28:39;;;;;;;69.43;37.45;;;8.60;82.30;;;7.82;68.34;95497.88;4954847;29;20243;-88
2021/11/16 03:31:19;;;;;;;66.03;36.33;;;8.50;82.20;;;7.80;68.31;95496.38;4945990;28;20225;-88
2021/11/16 03:33:50;;;;;;;69.57;36.33;;;8.50;82.20;;;7.79;68.38;95495.56;4948561;28;20711;-89
2021/11/16 03:36:21;;;;;;;66.03;36.47;;;8.50;82.10;;;7.81;68.56;95500.63;4942121;28;20194;-88
2021/11/16 03:38:50;;;;;;;70.68;37.03;;;8.60;82.20;;;7.79;68.38;95492.94;4939011;28;20215;-89
2021/11/16 03:41:18;;;;;;;67.35;36.42;;;8.50;82.20;;;7.78;68.46;95485.28;4964976;28;20210;-88
2021/11/16 03:43:47;;;;;;;64.60;35.88;;;8.50;82.10;;;7.75;68.53;95485.59;4940681;28;20219;-89
2021/11/16 03:46:15;;;;;;;64.80;35.78;;;8.50;82.20;;;7.71;68.39;95479.88;4927630;28;20191;-89
2021/11/16 03:48:43;;;;;;;68.68;36.92;;;8.50;82.20;;;7.76;68.46;95484.63;4940323;28;20222;-88
2021/11/16 03:51:11;;;;;;;62.58;34.78;;;8.50;82.10;;;7.78;68.40;95485.28;4917744;28;20297;-87
2021/11/16 03:53:38;;;;;;;59.00;34.38;;;8.50;82.10;;;7.78;68.01;95487.91;4934614;28;20230;-89
2021/11/16 03:56:06;;;;;;;64.30;36.90;;;8.50;82.10;;;7.78;68.21;95491.31;4941506;28;20677;-88
2021/11/16 03:58:34;;;;;;;70.15;38.60;;;8.40;82.00;;;7.72;68.29;95476.28;4942618;28;20246;-89
2021/11/16 04:01:05;;;;;;;66.13;36.72;;;8.50;82.10;;;7.75;68.33;95489.03;4937519;28;20214;-88
2021/11/16 04:03:37;;;;;;;65.13;38.03;;;8.50;82.00;;;7.74;68.47;95489.16;4942597;28;20285;-88
2021/11/16 04:06:06;;;;;;;62.55;36.55;;;8.50;82.00;;;7.74;68.18;95486.56;4940990;28;20282;-88
2021/11/16 04:08:35;;;;;;;63.90;36.42;;;8.50;82.00;;;7.73;68.04;95488.38;4942229;28;20222;-88
2021/11/16 04:11:03;;;;;;;71.80;39.45;;;8.40;82.00;;;7.68;68.04;95481.00;4942528;28;20206;-87
2021/11/16 04:13:31;;;;;;;65.95;37.47;;;8.40;81.90;;;7.70;67.97;95483.44;4923930;28;20748;-87
2021/11/16 04:15:59;;;;;;;63.13;36.40;;;8.40;81.90;;;7.71;68.25;95485.09;4958360;28;20570;-87
2021/11/16 04:18:26;;;;;;;65.57;36.97;;;8.50;81.90;;;7.69;68.13;95487.88;4941709;28;20230;-86
2021/11/16 04:20:57;;;;;;;63.63;35.63;;;8.40;81.90;;;7.64;68.01;95471.88;4953922;28;20231;-88
2021/11/16 04:23:25;;;;;;;66.22;38.47;;;8.40;82.60;;;7.71;67.92;95484.28;4927253;28;20731;-88
2021/11/16 04:25:55;;;;;;;63.95;36.67;;;8.40;81.90;;;7.68;68.05;95478.41;4934722;28;20265;-88
2021/11/16 04:28:24;;;;;;;62.28;35.63;;;8.40;81.90;;;7.69;67.97;95480.03;4941466;28;20701;-87
2021/11/16 04:30:52;;;;;;;64.32;36.10;;;8.40;81.80;;;7.68;68.07;95483.63;4930512;28;20199;-89
2021/11/16 04:33:21;;;;;;;69.32;39.55;;;8.40;81.80;;;7.63;68.06;95479.84;4936986;28;20694;-89
2021/11/16 04:35:55;;;;;;;57.20;34.72;;;8.40;81.80;;;7.68;68.13;95482.81;4925162;28;20210;-89
2021/11/16 04:38:23;;;;;;;58.97;34.95;;;8.40;81.80;;;7.66;67.87;95474.31;4923872;28;20251;-89
2021/11/16 04:40:54;;;;;;;61.50;36.38;;;8.40;81.80;;;7.67;67.84;95471.53;4940011;28;20258;-87
2021/11/16 04:43:25;;;;;;;62.67;36.65;;;8.40;81.80;;;7.67;68.05;95466.31;4939173;28;20222;-88
2021/11/16 04:45:57;;;;;;;59.15;36.80;;;8.40;81.70;;;7.62;67.73;95465.97;4938635;28;20441;-88
2021/11/16 04:49:01;;;;;;;58.55;34.53;;;8.40;81.80;;;7.66;67.66;95472.50;4939571;28;20236;-88
2021/11/16 04:59:50;;;;;;;61.08;35.22;;;8.40;81.70;;;7.63;67.85;95465.00;4943038;28;20615;-87
2021/11/16 05:02:37;;;;;;;62.53;35.78;;;8.40;81.80;;;7.63;67.89;95465.00;4940544;28;20657;-87
2021/11/16 05:05:24;;;;;;;70.85;39.40;;;8.40;81.80;;;7.58;67.72;95451.63;4927207;28;20229;-87
2021/11/16 05:08:02;;;;;;;83.57;43.55;;;8.40;81.70;;;7.58;68.14;95456.84;4937378;29;20187;-86
2021/11/16 05:10:30;;;;;;;74.20;40.47;;;8.30;81.70;;;7.49;68.18;95442.94;4949131;28;20191;-87
2021/11/16 05:12:57;;;;;;;70.80;40.20;;;8.30;81.70;;;7.53;67.78;95452.09;4923726;28;20246;-88
2021/11/16 05:15:26;;;;;;;65.45;38.15;;;8.30;81.70;;;7.55;67.88;95449.31;4942139;28;20285;-88
2021/11/16 05:17:54;;;;;;;62.97;36.88;;;8.30;81.80;;;7.51;67.92;95446.22;4941632;28;20206;-87
2021/11/16 05:20:22;;;;;;;68.80;39.35;;;8.30;81.70;;;7.56;68.11;95452.75;4941646;28;20257;-87
2021/11/16 05:22:54;;;;;;;72.13;39.70;;;8.30;81.90;;;7.47;68.01;95444.06;4926332;28;20257;-87
2021/11/16 05:25:22;;;;;;;66.20;38.08;;;8.30;81.80;;;7.53;67.97;95459.94;4941776;28;20269;-90
2021/11/16 05:27:50;;;;;;;66.45;38.08;;;8.30;81.80;;;7.50;68.12;95457.63;4942261;28;20203;-88
2021/11/16 05:30:18;;;;;;;70.10;38.80;;;8.30;81.90;;;7.53;67.65;95466.94;4925828;28;20233;-88
2021/11/16 05:32:45;;;;;;;68.63;37.85;;;8.30;81.80;;;7.52;68.11;95468.72;4941679;28;20261;-88
2021/11/16 05:35:13;;;;;;;69.90;38.92;;;8.20;81.80;;;7.53;68.14;95472.97;4941711;28;20704;-88
2021/11/16 05:37:41;;;;;;;64.80;36.78;;;8.30;81.80;;;7.50;68.02;95464.66;4942212;28;20207;-88
2021/11/16 05:40:10;;;;;;;63.72;37.67;;;8.30;81.90;;;7.53;68.15;95475.59;4938472;29;20377;-87
2021/11/16 05:42:37;;;;;;;66.00;38.20;;;8.20;81.80;;;7.53;68.02;95464.31;4939012;29;20199;-88
2021/11/16 05:45:06;;;;;;;60.72;36.63;;;8.30;81.80;;;7.55;68.07;95469.41;4962326;28;20277;-87
2021/11/16 05:47:37;;;;;;;66.07;37.35;;;8.20;81.80;;;7.54;67.95;95476.41;4957686;28;20222;-88
2021/11/16 05:50:08;;;;;;;67.15;38.50;;;8.20;81.80;;;7.49;68.04;95470.84;4926152;28;20261;-88
2021/11/16 05:52:35;;;;;;;66.28;37.70;;;8.30;81.90;;;7.47;67.99;95457.13;4922045;29;20199;-88
2021/11/16 05:55:07;;;;;;;64.97;38.03;;;8.30;81.90;;;7.50;68.30;95465.44;4938614;29;20267;-88
2021/11/16 05:57:35;;;;;;;61.60;36.20;;;8.30;81.90;;;7.53;68.21;95467.75;4956407;28;20705;-89
2021/11/16 06:00:08;;;;;;;64.72;36.67;;;8.30;81.90;;;7.48;68.00;95462.19;4936749;29;20331;-89
2021/11/16 06:02:37;;;;;;;61.15;36.08;;;8.30;81.90;;;7.51;68.15;95461.88;4922738;29;20247;-87
2021/11/16 06:05:05;;;;;;;62.90;36.50;;;8.30;81.90;;;7.55;68.34;95470.19;4942436;28;20222;-88
2021/11/16 06:07:33;;;;;;;62.63;36.72;;;8.30;81.90;;;7.52;67.98;95460.09;4941386;28;20212;-88
2021/11/16 06:10:01;;;;;;;64.50;36.92;;;8.30;82.00;;;7.56;68.11;95461.41;4925675;28;20215;-90
2021/11/16 06:12:28;;;;;;;60.80;37.25;;;8.30;82.00;;;7.57;68.25;95459.59;4941862;28;20229;-89
2021/11/16 06:14:56;;;;;;;64.55;38.53;;;8.30;82.00;;;7.49;68.05;95452.56;4925672;28;20246;-88
2021/11/16 06:17:23;;;;;;;67.20;39.85;;;8.30;81.90;;;7.53;68.18;95459.09;4941352;28;20227;-89
2021/11/16 06:19:51;;;;;;;63.35;37.58;;;8.30;82.00;;;7.57;68.18;95467.44;4941214;28;20227;-88
2021/11/16 06:22:19;;;;;;;63.17;38.88;;;8.20;81.90;;;7.57;68.10;95468.25;4939826;28;20219;-89
2021/11/16 06:24:46;;;;;;;60.65;37.10;;;8.30;82.00;;;7.55;68.00;95456.34;4940932;28;20218;-88
2021/11/16 06:27:13;;;;;;;67.50;39.35;;;8.20;82.00;;;7.58;68.15;95467.28;4942752;28;20203;-88
2021/11/16 06:29:41;;;;;;;62.03;38.33;;;8.30;82.10;;;7.60;68.24;95467.13;4929270;28;20219;-88
2021/11/16 06:32:10;;;;;;;65.90;37.25;;;8.30;82.00;;;7.61;68.20;95460.94;4928912;28;20734;-87
2021/11/16 06:34:37;;;;;;;63.83;38.10;;;8.30;82.10;;;7.59;68.07;95462.88;4945499;28;20223;-89
2021/11/16 06:37:09;;;;;;;68.63;39.25;;;8.40;82.10;;;7.62;67.96;95460.75;4945183;28;20298;-87
2021/11/16 06:39:37;;;;;;;67.70;39.03;;;8.30;82.00;;;7.61;68.35;95468.75;4945018;28;20322;-88
2021/11/16 06:42:05;;;;;;;67.40;40.22;;;8.30;82.00;;;7.61;68.12;95466.94;4944604;28;20277;-87
2021/11/16 06:44:32;;;;;;;68.43;39.83;;;8.30;82.00;;;7.60;68.02;95469.72;4939979;28;20227;-88
2021/11/16 06:47:00;;;;;;;62.80;37.17;;;8.40;82.10;;;7.62;68.04;95479.03;4949710;28;20198;-88
2021/11/16 06:49:27;;;;;;;60.50;36.42;;;8.30;82.00;;;7.64;68.06;95479.69;4934074;29;20235;-88
2021/11/16 06:51:57;;;;;;;59.50;36.70;;;8.30;82.00;;;7.65;68.10;95476.13;4924834;28;20218;-88
2021/11/16 06:54:26;;;;;;;66.13;36.63;;;8.30;82.00;;;7.67;68.21;95474.16;4942385;28;20217;-88
2021/11/16 06:56:54;;;;;;;64.55;36.20;;;8.30;82.00;;;7.71;68.10;95476.44;4940696;29;20200;-88
2021/11/16 06:59:25;;;;;;;61.75;36.55;;;8.30;82.10;;;7.68;68.26;95467.16;4930132;28;20261;-88
2021/11/16 07:01:54;;;;;;;63.70;37.30;;;8.40;82.10;;;7.72;68.09;95476.28;4944255;28;20238;-88
2021/11/16 07:04:24;;;;;;;62.47;37.65;;;8.40;82.10;;;7.68;67.99;95462.72;4943484;28;20219;-87
2021/11/16 07:06:52;;;;;;;64.00;36.45;;;8.40;82.00;;;7.73;68.02;95470.09;4942802;28;20214;-89
2021/11/16 07:09:20;;;;;;;63.95;38.83;;;8.40;82.00;;;7.75;68.15;95464.69;4958600;28;20206;-88
2021/11/16 07:11:55;;;;;;;67.38;38.67;;;8.40;82.00;;;7.75;68.00;95472.53;4943952;28;20752;-87
2021/11/16 07:14:39;;;;;;;65.40;39.42;;;8.40;82.10;;;7.76;67.99;95471.56;4928772;28;20238;-87
2021/11/16 07:17:12;;;;;;;63.17;39.50;;;8.40;82.10;;;7.72;67.97;95462.44;4945078;28;20230;-88
2021/11/16 07:19:53;;;;;;;67.68;39.83;;;8.40;82.00;;;7.77;68.16;95475.81;4943973;28;20222;-88
2021/11/16 07:22:32;;;;;;;61.92;38.28;;;8.40;82.00;;;7.76;68.11;95476.78;4945344;28;20257;-89
2021/11/16 07:25:13;;;;;;;62.03;37.78;;;8.40;82.00;;;7.79;67.99;95481.69;4944230;28;20242;-87
2021/11/16 07:27:45;;;;;;;63.25;38.15;;;8.50;82.10;;;7.78;67.98;95478.25;4942125;28;20202;-89
2021/11/16 07:30:24;;;;;;;59.42;36.55;;;8.50;82.00;;;7.79;68.03;95479.09;4944334;28;20286;-88
2021/11/16 07:33:09;;;;;;;62.22;37.13;;;8.50;82.00;;;7.80;67.83;95471.09;4925970;29;20199;-88
2021/11/16 07:35:39;;;;;;;63.67;38.30;;;8.50;81.90;;;7.81;67.90;95471.88;4940973;29;20196;-89
2021/11/16 07:38:15;;;;;;;64.20;38.28;;;8.60;82.00;;;7.81;67.94;95461.44;4939440;28;20208;-89
2021/11/16 07:40:47;;;;;;;62.63;36.35;;;8.50;82.00;;;7.83;68.15;95455.06;4941019;29;20223;-88
2021/11/16 07:43:19;;;;;;;66.38;38.58;;;8.50;81.90;;;7.85;67.85;95454.94;4952486;28;20199;-88
2021/11/16 07:45:51;;;;;;;62.00;37.70;;;8.50;82.00;;;7.84;67.88;95464.56;4927603;28;20206;-88
2021/11/16 07:48:26;;;;;;;63.53;38.15;;;8.50;82.00;;;7.85;67.70;95465.38;4943949;28;20203;-88
2021/11/16 07:51:05;;;;;;;58.78;37.40;;;8.50;81.90;;;7.90;67.91;95468.31;4959761;28;20238;-88
2021/11/16 07:53:47;;;;;;;62.67;37.25;;;8.50;81.90;;;7.88;68.02;95466.84;4976457;28;20218;-88
2021/11/16 07:56:25;;;;;;;63.10;36.78;;;8.50;81.90;;;7.91;67.96;95467.34;4945211;28;20705;-88
2021/11/16 07:59:02;;;;;;;63.65;37.10;;;8.50;81.90;;;7.91;67.94;95464.75;4953164;28;20221;-87
2021/11/16 08:01:57;;;;;;;60.50;37.88;;;8.60;82.00;;;7.95;68.04;95462.63;4943399;28;20262;-86
2021/11/16 08:04:31;;;;;;;56.38;35.95;;;8.60;82.00;;;7.98;67.87;95455.28;4946103;28;20265;-87
2021/11/16 08:09:56;;;;;;;67.20;40.67;;;8.60;82.00;;;7.97;67.82;95450.19;4935177;28;20250;-87
2021/11/16 08:12:42;;;;;;;58.22;37.08;;;8.60;81.90;;;8.02;67.75;95458.38;4941770;28;20210;-88
2021/11/16 08:15:12;;;;;;;62.40;37.72;;;8.60;81.80;;;8.03;67.77;95460.00;4948661;28;20304;-88
2021/11/16 08:17:41;;;;;;;63.50;38.15;;;8.60;81.80;;;8.05;67.80;95467.69;4938457;29;20278;-89
2021/11/16 08:20:13;;;;;;;62.42;37.25;;;8.70;81.90;;;8.00;67.52;95458.53;4939191;28;20218;-89
2021/11/16 08:22:42;;;;;;;65.03;38.10;;;8.70;81.80;;;8.04;67.66;95464.25;4942504;28;20257;-88
2021/11/16 08:25:11;;;;;;;59.17;37.50;;;8.70;81.80;;;8.03;67.34;95467.84;4941840;28;20224;-88
2021/11/16 08:27:43;;;;;;;58.72;36.90;;;8.70;81.70;;;8.04;67.51;95468.66;4941087;28;20207;-87
2021/11/16 08:30:22;;;;;;;56.92;36.13;;;8.70;81.70;;;8.05;67.33;95471.09;4923939;28;20217;-88
2021/11/16 08:32:57;;;;;;;59.80;35.70;;;8.70;81.70;;;8.06;67.74;95469.34;4932125;28;20230;-88
2021/11/16 08:35:26;;;;;;;59.33;36.63;;;8.70;81.70;;;8.00;67.50;95458.53;4940786;28;20755;-87
2021/11/16 08:38:00;;;;;;;55.90;35.17;;;8.70;81.60;;;8.06;67.32;95467.53;4942300;28;20205;-88
2021/11/16 08:40:36;;;;;;;57.92;35.00;;;8.70;81.60;;;8.02;67.30;95463.63;4927433;28;20264;-87
2021/11/16 08:43:17;;;;;;;61.13;36.90;;;8.70;81.60;;;8.02;67.41;95466.22;4941760;28;20215;-88
2021/11/16 08:45:53;;;;;;;62.75;37.40;;;8.70;81.60;;;8.06;67.35;95469.34;4940959;29;20183;-88
2021/11/16 08:48:23;;;;;;;58.53;36.83;;;8.70;81.60;;;8.06;67.33;95472.75;4940099;28;20246;-89
2021/11/16 08:50:56;;;;;;;59.22;37.70;;;8.70;81.60;;;8.03;67.20;95449.53;4940925;28;20654;-88
2021/11/16 08:53:26;;;;;;;62.20;38.80;;;8.70;81.50;;;8.07;67.28;95461.31;4942335;28;20684;-87
2021/11/16 08:55:55;;;;;;;62.78;39.95;;;8.70;81.50;;;8.09;67.45;95453.31;4942359;28;20206;-88
2021/11/16 08:58:29;;;;;;;60.72;36.80;;;8.70;81.60;;;8.10;67.25;95447.91;4940266;28;20246;-85
2021/11/16 09:01:05;;;;;;;59.60;34.95;;;8.70;81.50;;;8.13;67.14;95455.44;4942514;28;20202;-88
2021/11/16 09:03:45;;;;;;;62.05;36.17;;;8.70;81.60;;;8.15;67.35;95458.72;4942550;28;20367;-87
2021/11/16 09:06:23;;;;;;;61.60;36.95;;;8.80;81.60;;;8.16;67.25;95455.09;4924435;28;20484;-88
2021/11/16 09:09:11;;;;;;;56.00;37.13;;;8.80;81.60;;;8.15;67.25;95450.03;4942504;28;20214;-89
2021/11/16 09:11:58;;;;;;;61.00;37.45;;;8.80;81.60;;;8.19;67.36;95451.38;4927056;28;20202;-88
2021/11/16 09:14:25;;;;;;;63.08;37.70;;;8.80;81.70;;;8.21;67.33;95443.38;4941775;28;20661;-88
2021/11/16 09:16:53;;;;;;;51.50;33.78;;;8.80;81.60;;;8.25;67.32;95448.09;4936954;28;20209;-86
2021/11/16 09:19:27;;;;;;;57.17;35.40;;;8.80;81.60;;;8.28;67.27;95441.72;4969337;28;21600;-89
2021/11/16 09:21:56;;;;;;;55.65;36.65;;;8.80;81.60;;;8.31;67.35;95451.84;4952834;28;20740;-88
2021/11/16 09:24:35;;;;;;;54.15;35.78;;;8.90;81.70;;;8.35;67.09;95445.31;4957629;28;20273;-88
2021/11/16 09:29:33;;;;;;;53.97;35.33;;;8.90;81.70;;;8.42;67.14;95445.47;4957375;28;20226;-87
2021/11/16 09:32:14;;;;;;;61.75;36.45;;;9.00;81.70;;;8.39;66.98;95441.38;4941796;28;20194;-87
2021/11/16 09:34:49;;;;;;;57.85;36.30;;;9.00;81.50;;;8.46;67.05;95438.94;4942295;28;20226;-87
2021/11/16 09:37:22;;;;;;;55.72;35.92;;;9.00;81.60;;;8.47;66.81;95436.19;4941100;28;20191;-86
2021/11/16 09:40:03;;;;;;;57.22;34.55;;;9.10;81.60;;;8.53;66.99;95439.13;4940676;28;20222;-87
2021/11/16 09:42:36;;;;;;;52.88;34.58;;;9.10;81.50;;;8.55;67.12;95435.34;4927035;28;20222;-88
2021/11/16 09:45:19;;;;;;;52.25;34.33;;;9.10;81.60;;;8.63;67.17;95443.19;4922744;28;20207;-86
2021/11/16 09:47:46;;;;;;;51.03;32.80;;;9.20;81.50;;;8.70;67.10;95450.38;4940580;28;20213;-88
2021/11/16 09:50:24;;;;;;;56.40;35.42;;;9.10;81.70;;;8.72;66.63;95449.22;4955167;28;20238;-87
2021/11/16 09:52:56;;;;;;;54.13;33.95;;;9.20;81.60;;;8.76;66.69;95447.06;4921108;29;20203;-88
2021/11/16 09:55:30;;;;;;;52.00;33.90;;;9.20;81.50;;;8.83;66.73;95448.03;4940615;28;20238;-87
2021/11/16 09:58:04;;;;;;;55.47;34.85;;;9.30;81.60;;;8.81;66.85;95443.00;4941635;28;20218;-87
2021/11/16 10:00:39;;;;;;;51.90;32.38;;;9.40;81.60;;;8.92;66.53;95446.22;4940921;28;20195;-87
2021/11/16 10:03:20;;;;;;;46.35;30.25;;;9.30;81.50;;;8.97;66.70;95433.44;4944237;28;20284;-87
2021/11/16 10:05:53;;;;;;;51.97;34.63;;;9.40;81.40;;;9.01;66.63;95437.38;4929856;28;20245;-87
2021/11/16 10:08:26;;;;;;;52.53;34.47;;;9.50;81.50;;;9.01;66.45;95428.69;4945825;28;20266;-88
2021/11/16 10:10:57;;;;;;;51.17;33.58;;;9.50;81.40;;;9.08;66.68;95432.25;4929493;28;20310;-87
2021/11/16 10:13:30;;;;;;;52.25;34.17;;;9.50;81.40;;;9.13;66.42;95425.53;4945812;28;20218;-88
2021/11/16 10:16:02;;;;;;;53.60;34.45;;;9.60;81.40;;;9.17;66.32;95418.16;4945354;28;20222;-86
2021/11/16 10:18:31;;;;;;;50.78;32.92;;;9.60;81.40;;;9.23;66.18;95406.22;4959112;28;20390;-87
2021/11/16 10:20:58;;;;;;;52.08;34.33;;;9.70;81.40;;;9.29;66.21;95416.00;4945110;28;20397;-88
2021/11/16 10:23:40;;;;;;;50.70;32.38;;;9.70;81.40;;;9.27;66.32;95404.88;4945555;28;20265;-88
2021/11/16 10:26:09;;;;;;;53.85;33.33;;;9.70;81.20;;;9.38;66.01;95407.09;4942255;28;20502;-87
2021/11/16 10:28:43;;;;;;;50.83;32.40;;;9.80;81.30;;;9.44;65.71;95411.63;4918515;28;20246;-87
2021/11/16 10:31:11;;;;;;;49.13;32.10;;;9.90;81.30;;;9.48;65.94;95409.50;4966920;28;20241;-87
2021/11/16 10:33:46;;;;;;;46.50;30.75;;;9.90;81.30;;;9.54;65.92;95408.81;4980652;28;20257;-88
2021/11/16 10:36:17;;;;;;;48.30;31.17;;;9.90;81.20;;;9.61;66.05;95394.03;4945245;28;20262;-88
2021/11/16 10:38:50;;;;;;;49.97;30.63;;;10.00;80.20;;;9.70;65.97;95391.38;4944395;28;20281;-86
2021/11/16 10:41:26;;;;;;;47.85;31.30;;;10.00;80.00;;;9.73;65.68;95378.72;4944927;28;20187;-88
2021/11/16 10:44:02;;;;;;;47.42;31.30;;;10.10;80.10;;;9.85;65.61;95388.78;4940712;29;20218;-87
2021/11/16 10:46:34;;;;;;;46.63;30.63;;;10.20;80.00;;;9.92;65.48;95387.94;4963373;28;20199;-86
2021/11/16 10:49:09;;;;;;;45.75;30.55;;;10.20;79.90;;;10.00;65.49;95391.50;4945101;28;20281;-88